sensor_id;sensor_type;location;lat;lon;timestamp;P1;durP1;ratioP1;P2;durP2;ratioP2
42110;SDS011;27766;52.174;5.456;2024-01-30T00:02:00;13.90;;;10.70;;
42110;SDS011;27766;52.174;5.456;2024-01-30T00:04:27;12.82;;;10.60;;
42110;SDS011;27766;52.174;5.456;2024-01-30T00:06:55;17.48;;;9.90;;
42110;SDS011;27766;52.174;5.456;2024-01-30T00:09:22;14.48;;;11.05;;
42110;SDS011;27766;52.174;5.456;2024-01-30T00:11:49;14.13;;;11.00;;
42110;SDS011;27766;52.174;5.456;2024-01-30T00:14:16;14.77;;;10.98;;
42110;SDS011;27766;52.174;5.456;2024-01-30T00:16:44;15.80;;;10.30;;
42110;SDS011;27766;52.174;5.456;2024-01-30T00:19:12;18.42;;;10.80;;
42110;SDS011;27766;52.174;5.456;2024-01-30T00:21:39;14.48;;;10.65;;
42110;SDS011;27766;52.174;5.456;2024-01-30T00:24:06;17.60;;;10.73;;
42110;SDS011;27766;52.174;5.456;2024-01-30T00:26:33;14.85;;;10.65;;
42110;SDS011;27766;52.174;5.456;2024-01-30T00:29:00;12.40;;;9.65;;
42110;SDS011;27766;52.174;5.456;2024-01-30T00:31:28;14.02;;;11.13;;
42110;SDS011;27766;52.174;5.456;2024-01-30T00:33:56;16.70;;;10.98;;
42110;SDS011;27766;52.174;5.456;2024-01-30T00:36:23;15.20;;;10.52;;
42110;SDS011;27766;52.174;5.456;2024-01-30T00:38:50;17.17;;;10.88;;
42110;SDS011;27766;52.174;5.456;2024-01-30T00:41:17;15.75;;;10.68;;
42110;SDS011;27766;52.174;5.456;2024-01-30T00:43:46;12.93;;;9.77;;
42110;SDS011;27766;52.174;5.456;2024-01-30T00:46:13;14.93;;;10.88;;
42110;SDS011;27766;52.174;5.456;2024-01-30T00:48:40;16.20;;;11.32;;
42110;SDS011;27766;52.174;5.456;2024-01-30T00:51:07;15.73;;;10.63;;
42110;SDS011;27766;52.174;5.456;2024-01-30T00:53:34;16.13;;;9.82;;
42110;SDS011;27766;52.174;5.456;2024-01-30T00:56:02;16.00;;;10.82;;
42110;SDS011;27766;52.174;5.456;2024-01-30T00:58:30;14.88;;;10.57;;
42110;SDS011;27766;52.174;5.456;2024-01-30T01:00:57;14.70;;;10.30;;
42110;SDS011;27766;52.174;5.456;2024-01-30T01:03:24;15.18;;;9.85;;
42110;SDS011;27766;52.174;5.456;2024-01-30T01:05:52;12.85;;;9.57;;
42110;SDS011;27766;52.174;5.456;2024-01-30T01:08:19;14.70;;;11.02;;
42110;SDS011;27766;52.174;5.456;2024-01-30T01:10:47;14.07;;;10.57;;
42110;SDS011;27766;52.174;5.456;2024-01-30T01:13:14;15.48;;;10.60;;
42110;SDS011;27766;52.174;5.456;2024-01-30T01:15:41;16.90;;;10.02;;
42110;SDS011;27766;52.174;5.456;2024-01-30T01:18:10;14.15;;;9.15;;
42110;SDS011;27766;52.174;5.456;2024-01-30T01:20:37;17.45;;;10.02;;
42110;SDS011;27766;52.174;5.456;2024-01-30T01:23:04;14.55;;;10.07;;
42110;SDS011;27766;52.174;5.456;2024-01-30T01:25:31;13.75;;;10.15;;
42110;SDS011;27766;52.174;5.456;2024-01-30T01:27:58;15.98;;;10.15;;
42110;SDS011;27766;52.174;5.456;2024-01-30T01:30:28;18.77;;;10.27;;
42110;SDS011;27766;52.174;5.456;2024-01-30T01:32:56;14.85;;;10.32;;
42110;SDS011;27766;52.174;5.456;2024-01-30T01:35:24;15.52;;;10.00;;
42110;SDS011;27766;52.174;5.456;2024-01-30T01:37:52;14.20;;;10.45;;
42110;SDS011;27766;52.174;5.456;2024-01-30T01:40:23;14.75;;;9.82;;
42110;SDS011;27766;52.174;5.456;2024-01-30T01:42:51;12.13;;;10.07;;
42110;SDS011;27766;52.174;5.456;2024-01-30T01:45:20;18.05;;;9.45;;
42110;SDS011;27766;52.174;5.456;2024-01-30T01:47:49;18.90;;;10.95;;
42110;SDS011;27766;52.174;5.456;2024-01-30T01:50:18;11.90;;;10.13;;
42110;SDS011;27766;52.174;5.456;2024-01-30T01:52:48;12.75;;;10.30;;
42110;SDS011;27766;52.174;5.456;2024-01-30T01:55:15;16.35;;;10.60;;
42110;SDS011;27766;52.174;5.456;2024-01-30T02:00:16;15.23;;;9.55;;
42110;SDS011;27766;52.174;5.456;2024-01-30T02:02:46;12.82;;;9.15;;
42110;SDS011;27766;52.174;5.456;2024-01-30T02:05:14;15.23;;;10.35;;
42110;SDS011;27766;52.174;5.456;2024-01-30T02:07:42;16.17;;;10.40;;
42110;SDS011;27766;52.174;5.456;2024-01-30T02:10:10;15.60;;;9.60;;
42110;SDS011;27766;52.174;5.456;2024-01-30T02:12:38;12.88;;;10.20;;
42110;SDS011;27766;52.174;5.456;2024-01-30T02:15:05;13.32;;;10.80;;
42110;SDS011;27766;52.174;5.456;2024-01-30T02:17:34;12.70;;;10.35;;
42110;SDS011;27766;52.174;5.456;2024-01-30T02:20:01;15.38;;;9.77;;
42110;SDS011;27766;52.174;5.456;2024-01-30T02:22:30;12.43;;;10.05;;
42110;SDS011;27766;52.174;5.456;2024-01-30T02:25:00;13.20;;;10.30;;
42110;SDS011;27766;52.174;5.456;2024-01-30T02:27:28;14.93;;;11.13;;
42110;SDS011;27766;52.174;5.456;2024-01-30T02:29:55;13.82;;;9.60;;
42110;SDS011;27766;52.174;5.456;2024-01-30T02:32:22;15.55;;;10.63;;
42110;SDS011;27766;52.174;5.456;2024-01-30T02:34:49;14.40;;;10.93;;
42110;SDS011;27766;52.174;5.456;2024-01-30T02:37:17;14.13;;;10.95;;
42110;SDS011;27766;52.174;5.456;2024-01-30T02:39:44;14.27;;;10.18;;
42110;SDS011;27766;52.174;5.456;2024-01-30T02:42:11;15.23;;;10.68;;
42110;SDS011;27766;52.174;5.456;2024-01-30T02:44:39;19.00;;;10.77;;
42110;SDS011;27766;52.174;5.456;2024-01-30T02:47:06;14.10;;;10.13;;
42110;SDS011;27766;52.174;5.456;2024-01-30T02:49:33;13.75;;;10.52;;
42110;SDS011;27766;52.174;5.456;2024-01-30T02:52:00;12.68;;;10.35;;
42110;SDS011;27766;52.174;5.456;2024-01-30T02:54:28;12.27;;;10.48;;
42110;SDS011;27766;52.174;5.456;2024-01-30T02:56:57;15.00;;;10.75;;
42110;SDS011;27766;52.174;5.456;2024-01-30T02:59:24;15.93;;;11.00;;
42110;SDS011;27766;52.174;5.456;2024-01-30T03:01:51;14.10;;;11.00;;
42110;SDS011;27766;52.174;5.456;2024-01-30T03:04:19;16.77;;;10.60;;
42110;SDS011;27766;52.174;5.456;2024-01-30T03:06:46;13.77;;;10.23;;
42110;SDS011;27766;52.174;5.456;2024-01-30T03:09:16;17.90;;;11.02;;
42110;SDS011;27766;52.174;5.456;2024-01-30T03:11:45;12.20;;;9.90;;
42110;SDS011;27766;52.174;5.456;2024-01-30T03:14:12;15.02;;;9.82;;
42110;SDS011;27766;52.174;5.456;2024-01-30T03:16:39;17.67;;;10.98;;
42110;SDS011;27766;52.174;5.456;2024-01-30T03:19:06;17.70;;;10.73;;
42110;SDS011;27766;52.174;5.456;2024-01-30T03:21:36;15.40;;;10.98;;
42110;SDS011;27766;52.174;5.456;2024-01-30T03:24:03;18.95;;;11.73;;
42110;SDS011;27766;52.174;5.456;2024-01-30T03:26:30;22.20;;;13.48;;
42110;SDS011;27766;52.174;5.456;2024-01-30T03:28:57;20.38;;;13.50;;
42110;SDS011;27766;52.174;5.456;2024-01-30T03:31:25;17.70;;;12.90;;
42110;SDS011;27766;52.174;5.456;2024-01-30T03:33:52;23.73;;;14.60;;
42110;SDS011;27766;52.174;5.456;2024-01-30T03:36:19;24.33;;;14.70;;
42110;SDS011;27766;52.174;5.456;2024-01-30T03:38:47;21.13;;;14.70;;
42110;SDS011;27766;52.174;5.456;2024-01-30T03:41:14;18.10;;;13.77;;
42110;SDS011;27766;52.174;5.456;2024-01-30T03:43:41;22.00;;;13.85;;
42110;SDS011;27766;52.174;5.456;2024-01-30T03:46:09;20.95;;;13.35;;
42110;SDS011;27766;52.174;5.456;2024-01-30T03:48:36;19.98;;;13.20;;
42110;SDS011;27766;52.174;5.456;2024-01-30T03:51:03;20.42;;;13.05;;
42110;SDS011;27766;52.174;5.456;2024-01-30T03:53:31;19.40;;;12.13;;
42110;SDS011;27766;52.174;5.456;2024-01-30T03:55:58;19.15;;;12.38;;
42110;SDS011;27766;52.174;5.456;2024-01-30T03:58:25;17.17;;;12.00;;
42110;SDS011;27766;52.174;5.456;2024-01-30T04:00:52;16.48;;;12.05;;
42110;SDS011;27766;52.174;5.456;2024-01-30T04:03:19;14.30;;;11.30;;
42110;SDS011;27766;52.174;5.456;2024-01-30T04:05:47;16.45;;;11.43;;
42110;SDS011;27766;52.174;5.456;2024-01-30T04:08:14;14.75;;;11.13;;
42110;SDS011;27766;52.174;5.456;2024-01-30T04:10:41;16.88;;;10.90;;
42110;SDS011;27766;52.174;5.456;2024-01-30T04:13:08;13.43;;;10.15;;
42110;SDS011;27766;52.174;5.456;2024-01-30T04:15:38;14.68;;;9.95;;
42110;SDS011;27766;52.174;5.456;2024-01-30T04:18:06;16.23;;;9.80;;
42110;SDS011;27766;52.174;5.456;2024-01-30T04:20:33;17.23;;;9.82;;
42110;SDS011;27766;52.174;5.456;2024-01-30T04:23:00;13.82;;;9.07;;
42110;SDS011;27766;52.174;5.456;2024-01-30T04:25:27;12.57;;;9.27;;
42110;SDS011;27766;52.174;5.456;2024-01-30T04:27:54;15.02;;;9.73;;
42110;SDS011;27766;52.174;5.456;2024-01-30T04:30:22;19.83;;;9.57;;
42110;SDS011;27766;52.174;5.456;2024-01-30T04:32:49;12.43;;;9.07;;
42110;SDS011;27766;52.174;5.456;2024-01-30T04:35:16;12.50;;;8.98;;
42110;SDS011;27766;52.174;5.456;2024-01-30T04:37:43;14.55;;;8.82;;
42110;SDS011;27766;52.174;5.456;2024-01-30T04:40:10;14.77;;;8.80;;
42110;SDS011;27766;52.174;5.456;2024-01-30T04:42:38;9.48;;;8.40;;
42110;SDS011;27766;52.174;5.456;2024-01-30T04:45:05;13.75;;;8.75;;
42110;SDS011;27766;52.174;5.456;2024-01-30T04:47:33;11.75;;;8.82;;
42110;SDS011;27766;52.174;5.456;2024-01-30T04:50:01;13.32;;;9.65;;
42110;SDS011;27766;52.174;5.456;2024-01-30T04:52:28;13.20;;;9.27;;
42110;SDS011;27766;52.174;5.456;2024-01-30T04:54:55;13.00;;;8.23;;
42110;SDS011;27766;52.174;5.456;2024-01-30T04:57:23;11.85;;;8.05;;
42110;SDS011;27766;52.174;5.456;2024-01-30T04:59:50;10.02;;;7.95;;
42110;SDS011;27766;52.174;5.456;2024-01-30T05:02:17;10.48;;;7.53;;
42110;SDS011;27766;52.174;5.456;2024-01-30T05:04:44;12.52;;;8.13;;
42110;SDS011;27766;52.174;5.456;2024-01-30T05:07:11;14.15;;;8.40;;
42110;SDS011;27766;52.174;5.456;2024-01-30T05:09:39;14.18;;;6.65;;
42110;SDS011;27766;52.174;5.456;2024-01-30T05:12:06;11.25;;;7.72;;
42110;SDS011;27766;52.174;5.456;2024-01-30T05:14:34;11.48;;;7.88;;
42110;SDS011;27766;52.174;5.456;2024-01-30T05:17:01;9.45;;;6.93;;
42110;SDS011;27766;52.174;5.456;2024-01-30T05:19:29;11.95;;;7.53;;
42110;SDS011;27766;52.174;5.456;2024-01-30T05:21:57;12.77;;;7.70;;
42110;SDS011;27766;52.174;5.456;2024-01-30T05:24:24;9.60;;;6.70;;
42110;SDS011;27766;52.174;5.456;2024-01-30T05:26:53;10.80;;;7.10;;
42110;SDS011;27766;52.174;5.456;2024-01-30T05:29:21;9.13;;;7.50;;
42110;SDS011;27766;52.174;5.456;2024-01-30T05:31:48;11.07;;;7.07;;
42110;SDS011;27766;52.174;5.456;2024-01-30T05:34:15;9.82;;;7.55;;
42110;SDS011;27766;52.174;5.456;2024-01-30T05:36:43;12.55;;;7.60;;
42110;SDS011;27766;52.174;5.456;2024-01-30T05:39:10;9.77;;;7.28;;
42110;SDS011;27766;52.174;5.456;2024-01-30T05:41:38;11.30;;;7.43;;
42110;SDS011;27766;52.174;5.456;2024-01-30T05:44:05;12.15;;;7.30;;
42110;SDS011;27766;52.174;5.456;2024-01-30T05:46:33;9.73;;;7.20;;
42110;SDS011;27766;52.174;5.456;2024-01-30T05:49:00;10.52;;;7.40;;
42110;SDS011;27766;52.174;5.456;2024-01-30T05:51:28;7.88;;;6.65;;
42110;SDS011;27766;52.174;5.456;2024-01-30T05:53:55;9.00;;;6.72;;
42110;SDS011;27766;52.174;5.456;2024-01-30T05:56:22;10.45;;;7.40;;
42110;SDS011;27766;52.174;5.456;2024-01-30T05:58:49;10.90;;;7.70;;
42110;SDS011;27766;52.174;5.456;2024-01-30T06:01:19;15.43;;;7.60;;
42110;SDS011;27766;52.174;5.456;2024-01-30T06:03:47;15.77;;;7.97;;
42110;SDS011;27766;52.174;5.456;2024-01-30T06:06:14;8.50;;;6.65;;
42110;SDS011;27766;52.174;5.456;2024-01-30T06:08:41;9.65;;;7.25;;
42110;SDS011;27766;52.174;5.456;2024-01-30T06:11:11;13.95;;;8.00;;
42110;SDS011;27766;52.174;5.456;2024-01-30T06:13:39;8.50;;;6.68;;
42110;SDS011;27766;52.174;5.456;2024-01-30T06:16:09;11.40;;;7.70;;
42110;SDS011;27766;52.174;5.456;2024-01-30T06:18:38;8.85;;;7.95;;
42110;SDS011;27766;52.174;5.456;2024-01-30T06:21:05;8.57;;;7.05;;
42110;SDS011;27766;52.174;5.456;2024-01-30T06:23:35;12.80;;;7.75;;
42110;SDS011;27766;52.174;5.456;2024-01-30T06:26:02;11.63;;;7.18;;
42110;SDS011;27766;52.174;5.456;2024-01-30T06:28:29;10.90;;;7.90;;
42110;SDS011;27766;52.174;5.456;2024-01-30T06:30:56;13.18;;;7.13;;
42110;SDS011;27766;52.174;5.456;2024-01-30T06:33:24;10.05;;;6.78;;
42110;SDS011;27766;52.174;5.456;2024-01-30T06:35:52;8.98;;;6.38;;
42110;SDS011;27766;52.174;5.456;2024-01-30T06:38:19;10.00;;;7.65;;
42110;SDS011;27766;52.174;5.456;2024-01-30T06:40:46;12.90;;;7.03;;
42110;SDS011;27766;52.174;5.456;2024-01-30T06:43:13;9.70;;;6.63;;
42110;SDS011;27766;52.174;5.456;2024-01-30T06:45:41;10.32;;;7.25;;
42110;SDS011;27766;52.174;5.456;2024-01-30T06:48:09;9.80;;;7.50;;
42110;SDS011;27766;52.174;5.456;2024-01-30T06:50:36;9.65;;;6.40;;
42110;SDS011;27766;52.174;5.456;2024-01-30T06:53:03;10.60;;;7.15;;
42110;SDS011;27766;52.174;5.456;2024-01-30T06:55:31;10.43;;;6.85;;
42110;SDS011;27766;52.174;5.456;2024-01-30T06:57:58;11.57;;;7.15;;
42110;SDS011;27766;52.174;5.456;2024-01-30T07:00:25;10.50;;;7.00;;
42110;SDS011;27766;52.174;5.456;2024-01-30T07:02:52;9.55;;;7.38;;
42110;SDS011;27766;52.174;5.456;2024-01-30T07:05:19;9.63;;;6.45;;
42110;SDS011;27766;52.174;5.456;2024-01-30T07:07:49;9.77;;;6.90;;
42110;SDS011;27766;52.174;5.456;2024-01-30T07:10:16;9.00;;;6.82;;
42110;SDS011;27766;52.174;5.456;2024-01-30T07:12:44;8.18;;;6.80;;
42110;SDS011;27766;52.174;5.456;2024-01-30T07:15:11;9.85;;;7.10;;
42110;SDS011;27766;52.174;5.456;2024-01-30T07:17:39;12.80;;;7.15;;
42110;SDS011;27766;52.174;5.456;2024-01-30T07:20:06;9.95;;;7.00;;
42110;SDS011;27766;52.174;5.456;2024-01-30T07:22:34;13.90;;;6.95;;
42110;SDS011;27766;52.174;5.456;2024-01-30T07:25:02;10.98;;;7.18;;
42110;SDS011;27766;52.174;5.456;2024-01-30T07:27:29;10.20;;;7.03;;
42110;SDS011;27766;52.174;5.456;2024-01-30T07:29:56;9.48;;;6.80;;
42110;SDS011;27766;52.174;5.456;2024-01-30T07:32:23;11.30;;;7.47;;
42110;SDS011;27766;52.174;5.456;2024-01-30T07:34:50;7.57;;;6.28;;
42110;SDS011;27766;52.174;5.456;2024-01-30T07:37:32;9.52;;;6.88;;
42110;SDS011;27766;52.174;5.456;2024-01-30T07:40:00;10.20;;;7.00;;
42110;SDS011;27766;52.174;5.456;2024-01-30T07:42:28;8.93;;;6.85;;
42110;SDS011;27766;52.174;5.456;2024-01-30T07:44:55;10.35;;;6.93;;
42110;SDS011;27766;52.174;5.456;2024-01-30T07:47:22;11.63;;;6.90;;
42110;SDS011;27766;52.174;5.456;2024-01-30T07:49:50;13.05;;;7.65;;
42110;SDS011;27766;52.174;5.456;2024-01-30T07:52:18;14.13;;;7.45;;
42110;SDS011;27766;52.174;5.456;2024-01-30T07:54:48;11.27;;;7.45;;
42110;SDS011;27766;52.174;5.456;2024-01-30T07:57:16;10.20;;;6.35;;
42110;SDS011;27766;52.174;5.456;2024-01-30T07:59:45;9.63;;;7.15;;
42110;SDS011;27766;52.174;5.456;2024-01-30T08:02:12;12.65;;;7.95;;
42110;SDS011;27766;52.174;5.456;2024-01-30T08:04:40;11.70;;;7.40;;
42110;SDS011;27766;52.174;5.456;2024-01-30T08:07:08;9.57;;;7.03;;
42110;SDS011;27766;52.174;5.456;2024-01-30T08:09:35;12.15;;;7.15;;
42110;SDS011;27766;52.174;5.456;2024-01-30T08:12:02;11.40;;;7.47;;
42110;SDS011;27766;52.174;5.456;2024-01-30T08:14:30;11.13;;;7.35;;
42110;SDS011;27766;52.174;5.456;2024-01-30T08:16:57;11.82;;;7.65;;
42110;SDS011;27766;52.174;5.456;2024-01-30T08:19:24;11.60;;;7.35;;
42110;SDS011;27766;52.174;5.456;2024-01-30T08:21:52;13.90;;;7.65;;
42110;SDS011;27766;52.174;5.456;2024-01-30T08:24:19;11.18;;;7.43;;
42110;SDS011;27766;52.174;5.456;2024-01-30T08:26:49;13.57;;;7.13;;
42110;SDS011;27766;52.174;5.456;2024-01-30T08:29:16;11.23;;;7.03;;
42110;SDS011;27766;52.174;5.456;2024-01-30T08:31:44;13.35;;;7.82;;
42110;SDS011;27766;52.174;5.456;2024-01-30T08:34:13;11.07;;;7.53;;
42110;SDS011;27766;52.174;5.456;2024-01-30T08:36:40;14.05;;;7.50;;
42110;SDS011;27766;52.174;5.456;2024-01-30T08:39:07;12.15;;;8.02;;
42110;SDS011;27766;52.174;5.456;2024-01-30T08:41:35;10.82;;;6.82;;
42110;SDS011;27766;52.174;5.456;2024-01-30T08:44:03;11.63;;;7.70;;
42110;SDS011;27766;52.174;5.456;2024-01-30T08:46:31;10.43;;;7.20;;
42110;SDS011;27766;52.174;5.456;2024-01-30T08:48:58;10.18;;;7.05;;
42110;SDS011;27766;52.174;5.456;2024-01-30T08:51:26;10.30;;;7.30;;
42110;SDS011;27766;52.174;5.456;2024-01-30T08:53:53;10.63;;;6.93;;
42110;SDS011;27766;52.174;5.456;2024-01-30T08:56:20;11.88;;;8.05;;
42110;SDS011;27766;52.174;5.456;2024-01-30T08:58:50;13.73;;;6.97;;
42110;SDS011;27766;52.174;5.456;2024-01-30T09:01:17;10.55;;;6.68;;
42110;SDS011;27766;52.174;5.456;2024-01-30T09:03:44;8.73;;;6.88;;
42110;SDS011;27766;52.174;5.456;2024-01-30T09:06:14;12.05;;;7.38;;
42110;SDS011;27766;52.174;5.456;2024-01-30T09:08:41;12.93;;;7.80;;
42110;SDS011;27766;52.174;5.456;2024-01-30T09:11:09;11.13;;;7.30;;
42110;SDS011;27766;52.174;5.456;2024-01-30T09:13:40;16.45;;;7.63;;
42110;SDS011;27766;52.174;5.456;2024-01-30T09:16:07;12.18;;;6.47;;
42110;SDS011;27766;52.174;5.456;2024-01-30T09:18:35;12.70;;;7.45;;
42110;SDS011;27766;52.174;5.456;2024-01-30T09:21:02;9.48;;;7.15;;
42110;SDS011;27766;52.174;5.456;2024-01-30T09:23:29;10.00;;;7.22;;
42110;SDS011;27766;52.174;5.456;2024-01-30T09:25:56;13.75;;;7.30;;
42110;SDS011;27766;52.174;5.456;2024-01-30T09:28:24;24.50;;;7.88;;
42110;SDS011;27766;52.174;5.456;2024-01-30T09:30:53;9.23;;;6.93;;
42110;SDS011;27766;52.174;5.456;2024-01-30T09:33:20;12.23;;;7.50;;
42110;SDS011;27766;52.174;5.456;2024-01-30T09:35:48;9.15;;;6.63;;
42110;SDS011;27766;52.174;5.456;2024-01-30T09:38:15;10.90;;;6.75;;
42110;SDS011;27766;52.174;5.456;2024-01-30T09:40:42;11.07;;;6.93;;
42110;SDS011;27766;52.174;5.456;2024-01-30T09:43:10;10.25;;;7.15;;
42110;SDS011;27766;52.174;5.456;2024-01-30T09:45:50;11.20;;;6.47;;
42110;SDS011;27766;52.174;5.456;2024-01-30T09:48:18;10.13;;;6.53;;
42110;SDS011;27766;52.174;5.456;2024-01-30T09:50:46;18.02;;;6.60;;
42110;SDS011;27766;52.174;5.456;2024-01-30T09:53:13;11.32;;;7.10;;
42110;SDS011;27766;52.174;5.456;2024-01-30T09:55:42;14.20;;;7.13;;
42110;SDS011;27766;52.174;5.456;2024-01-30T09:58:11;11.13;;;5.85;;
42110;SDS011;27766;52.174;5.456;2024-01-30T10:00:39;11.20;;;6.50;;
42110;SDS011;27766;52.174;5.456;2024-01-30T10:03:06;13.43;;;7.18;;
42110;SDS011;27766;52.174;5.456;2024-01-30T10:05:33;11.02;;;6.50;;
42110;SDS011;27766;52.174;5.456;2024-01-30T10:08:07;11.45;;;6.35;;
42110;SDS011;27766;52.174;5.456;2024-01-30T10:10:35;12.82;;;6.70;;
42110;SDS011;27766;52.174;5.456;2024-01-30T10:13:03;11.38;;;6.07;;
42110;SDS011;27766;52.174;5.456;2024-01-30T10:15:31;8.90;;;6.82;;
42110;SDS011;27766;52.174;5.456;2024-01-30T10:17:59;10.73;;;6.93;;
42110;SDS011;27766;52.174;5.456;2024-01-30T10:20:26;11.13;;;6.68;;
42110;SDS011;27766;52.174;5.456;2024-01-30T10:22:54;13.43;;;7.32;;
42110;SDS011;27766;52.174;5.456;2024-01-30T10:25:21;10.68;;;7.35;;
42110;SDS011;27766;52.174;5.456;2024-01-30T10:27:55;12.70;;;6.45;;
42110;SDS011;27766;52.174;5.456;2024-01-30T10:30:22;9.63;;;6.97;;
42110;SDS011;27766;52.174;5.456;2024-01-30T10:32:50;13.20;;;6.57;;
42110;SDS011;27766;52.174;5.456;2024-01-30T10:35:18;9.48;;;6.50;;
42110;SDS011;27766;52.174;5.456;2024-01-30T10:37:49;17.08;;;6.38;;
42110;SDS011;27766;52.174;5.456;2024-01-30T10:40:17;13.25;;;6.68;;
42110;SDS011;27766;52.174;5.456;2024-01-30T10:42:48;9.35;;;6.68;;
42110;SDS011;27766;52.174;5.456;2024-01-30T10:45:19;11.38;;;7.00;;
42110;SDS011;27766;52.174;5.456;2024-01-30T10:47:49;10.65;;;6.95;;
42110;SDS011;27766;52.174;5.456;2024-01-30T10:50:17;9.50;;;6.68;;
42110;SDS011;27766;52.174;5.456;2024-01-30T10:52:46;8.85;;;6.07;;
42110;SDS011;27766;52.174;5.456;2024-01-30T10:55:14;10.05;;;6.30;;
42110;SDS011;27766;52.174;5.456;2024-01-30T10:57:43;12.93;;;7.00;;
42110;SDS011;27766;52.174;5.456;2024-01-30T11:00:11;11.93;;;7.78;;
42110;SDS011;27766;52.174;5.456;2024-01-30T11:02:43;14.77;;;6.63;;
42110;SDS011;27766;52.174;5.456;2024-01-30T11:05:12;10.95;;;7.07;;
42110;SDS011;27766;52.174;5.456;2024-01-30T11:07:40;10.10;;;6.22;;
42110;SDS011;27766;52.174;5.456;2024-01-30T11:10:08;9.38;;;5.95;;
42110;SDS011;27766;52.174;5.456;2024-01-30T11:12:39;7.53;;;5.82;;
42110;SDS011;27766;52.174;5.456;2024-01-30T11:15:15;10.50;;;5.63;;
42110;SDS011;27766;52.174;5.456;2024-01-30T11:20:21;5.85;;;4.93;;
42110;SDS011;27766;52.174;5.456;2024-01-30T11:22:52;7.53;;;4.78;;
42110;SDS011;27766;52.174;5.456;2024-01-30T11:25:21;13.07;;;4.60;;
42110;SDS011;27766;52.174;5.456;2024-01-30T11:27:50;6.45;;;4.32;;
42110;SDS011;27766;52.174;5.456;2024-01-30T11:30:24;8.13;;;4.43;;
42110;SDS011;27766;52.174;5.456;2024-01-30T11:33:02;5.07;;;3.78;;
42110;SDS011;27766;52.174;5.456;2024-01-30T11:35:32;4.60;;;3.47;;
42110;SDS011;27766;52.174;5.456;2024-01-30T11:38:02;6.13;;;3.25;;
42110;SDS011;27766;52.174;5.456;2024-01-30T11:40:30;6.53;;;3.50;;
42110;SDS011;27766;52.174;5.456;2024-01-30T11:43:00;4.32;;;2.45;;
42110;SDS011;27766;52.174;5.456;2024-01-30T11:45:30;4.82;;;2.63;;
42110;SDS011;27766;52.174;5.456;2024-01-30T11:47:58;5.82;;;2.50;;
42110;SDS011;27766;52.174;5.456;2024-01-30T11:50:31;5.85;;;2.60;;
42110;SDS011;27766;52.174;5.456;2024-01-30T11:53:00;3.33;;;1.65;;
42110;SDS011;27766;52.174;5.456;2024-01-30T11:55:31;3.13;;;1.38;;
42110;SDS011;27766;52.174;5.456;2024-01-30T11:58:01;4.97;;;1.92;;
42110;SDS011;27766;52.174;5.456;2024-01-30T12:00:29;2.42;;;1.15;;
42110;SDS011;27766;52.174;5.456;2024-01-30T12:02:58;3.58;;;1.30;;
42110;SDS011;27766;52.174;5.456;2024-01-30T12:05:28;2.47;;;1.48;;
42110;SDS011;27766;52.174;5.456;2024-01-30T12:07:56;5.00;;;1.67;;
42110;SDS011;27766;52.174;5.456;2024-01-30T12:10:27;6.68;;;1.60;;
42110;SDS011;27766;52.174;5.456;2024-01-30T12:12:54;2.75;;;1.42;;
42110;SDS011;27766;52.174;5.456;2024-01-30T12:15:22;2.58;;;1.45;;
42110;SDS011;27766;52.174;5.456;2024-01-30T12:17:49;4.63;;;1.55;;
42110;SDS011;27766;52.174;5.456;2024-01-30T12:20:17;4.38;;;1.17;;
42110;SDS011;27766;52.174;5.456;2024-01-30T12:22:47;3.38;;;1.30;;
42110;SDS011;27766;52.174;5.456;2024-01-30T12:25:20;3.75;;;1.25;;
42110;SDS011;27766;52.174;5.456;2024-01-30T12:27:49;2.22;;;1.50;;
42110;SDS011;27766;52.174;5.456;2024-01-30T12:30:19;3.58;;;1.60;;
42110;SDS011;27766;52.174;5.456;2024-01-30T12:32:49;5.35;;;2.10;;
42110;SDS011;27766;52.174;5.456;2024-01-30T12:35:19;9.88;;;2.40;;
42110;SDS011;27766;52.174;5.456;2024-01-30T12:37:48;4.35;;;2.20;;
42110;SDS011;27766;52.174;5.456;2024-01-30T12:40:16;4.20;;;2.38;;
42110;SDS011;27766;52.174;5.456;2024-01-30T12:42:46;4.07;;;2.20;;
42110;SDS011;27766;52.174;5.456;2024-01-30T12:45:17;2.53;;;1.90;;
42110;SDS011;27766;52.174;5.456;2024-01-30T12:47:50;4.57;;;1.90;;
42110;SDS011;27766;52.174;5.456;2024-01-30T12:50:17;4.40;;;2.10;;
42110;SDS011;27766;52.174;5.456;2024-01-30T12:52:45;5.95;;;2.47;;
42110;SDS011;27766;52.174;5.456;2024-01-30T12:55:16;8.95;;;3.33;;
42110;SDS011;27766;52.174;5.456;2024-01-30T12:57:45;5.55;;;1.75;;
42110;SDS011;27766;52.174;5.456;2024-01-30T13:00:13;5.57;;;2.40;;
42110;SDS011;27766;52.174;5.456;2024-01-30T13:02:40;5.30;;;1.88;;
42110;SDS011;27766;52.174;5.456;2024-01-30T13:05:09;3.10;;;2.00;;
42110;SDS011;27766;52.174;5.456;2024-01-30T13:07:36;3.00;;;2.15;;
42110;SDS011;27766;52.174;5.456;2024-01-30T13:10:03;5.15;;;2.90;;
42110;SDS011;27766;52.174;5.456;2024-01-30T13:12:31;4.90;;;2.40;;
42110;SDS011;27766;52.174;5.456;2024-01-30T13:15:00;5.25;;;2.15;;
42110;SDS011;27766;52.174;5.456;2024-01-30T13:17:28;4.40;;;1.92;;
42110;SDS011;27766;52.174;5.456;2024-01-30T13:19:55;4.75;;;2.15;;
42110;SDS011;27766;52.174;5.456;2024-01-30T13:22:33;2.35;;;1.70;;
42110;SDS011;27766;52.174;5.456;2024-01-30T13:25:01;3.25;;;1.40;;
42110;SDS011;27766;52.174;5.456;2024-01-30T13:27:28;3.50;;;1.75;;
42110;SDS011;27766;52.174;5.456;2024-01-30T13:29:55;2.55;;;1.25;;
42110;SDS011;27766;52.174;5.456;2024-01-30T13:32:22;2.63;;;1.10;;
42110;SDS011;27766;52.174;5.456;2024-01-30T13:34:49;1.95;;;1.27;;
42110;SDS011;27766;52.174;5.456;2024-01-30T13:37:17;3.80;;;1.70;;
42110;SDS011;27766;52.174;5.456;2024-01-30T13:39:44;2.75;;;1.20;;
42110;SDS011;27766;52.174;5.456;2024-01-30T13:42:11;2.95;;;1.17;;
42110;SDS011;27766;52.174;5.456;2024-01-30T13:44:38;3.17;;;1.05;;
42110;SDS011;27766;52.174;5.456;2024-01-30T13:47:06;4.57;;;0.80;;
42110;SDS011;27766;52.174;5.456;2024-01-30T13:49:33;1.15;;;0.70;;
42110;SDS011;27766;52.174;5.456;2024-01-30T13:52:01;1.80;;;1.00;;
42110;SDS011;27766;52.174;5.456;2024-01-30T13:54:28;2.55;;;1.20;;
42110;SDS011;27766;52.174;5.456;2024-01-30T13:56:55;3.28;;;1.13;;
42110;SDS011;27766;52.174;5.456;2024-01-30T13:59:23;2.88;;;1.15;;
42110;SDS011;27766;52.174;5.456;2024-01-30T14:01:53;1.70;;;1.30;;
42110;SDS011;27766;52.174;5.456;2024-01-30T14:04:20;3.40;;;1.60;;
42110;SDS011;27766;52.174;5.456;2024-01-30T14:06:48;5.10;;;1.50;;
42110;SDS011;27766;52.174;5.456;2024-01-30T14:09:26;3.30;;;2.22;;
42110;SDS011;27766;52.174;5.456;2024-01-30T14:11:53;4.32;;;2.08;;
42110;SDS011;27766;52.174;5.456;2024-01-30T14:14:20;3.20;;;1.83;;
42110;SDS011;27766;52.174;5.456;2024-01-30T14:16:48;5.40;;;1.85;;
42110;SDS011;27766;52.174;5.456;2024-01-30T14:19:15;3.25;;;2.08;;
42110;SDS011;27766;52.174;5.456;2024-01-30T14:21:42;2.88;;;1.52;;
42110;SDS011;27766;52.174;5.456;2024-01-30T14:24:10;2.65;;;1.90;;
42110;SDS011;27766;52.174;5.456;2024-01-30T14:26:37;5.53;;;2.55;;
42110;SDS011;27766;52.174;5.456;2024-01-30T14:29:05;3.55;;;2.08;;
42110;SDS011;27766;52.174;5.456;2024-01-30T14:31:32;4.75;;;1.42;;
42110;SDS011;27766;52.174;5.456;2024-01-30T14:33:59;8.50;;;1.63;;
42110;SDS011;27766;52.174;5.456;2024-01-30T14:36:27;2.03;;;1.27;;
42110;SDS011;27766;52.174;5.456;2024-01-30T14:38:55;3.17;;;1.65;;
42110;SDS011;27766;52.174;5.456;2024-01-30T14:41:22;7.07;;;1.85;;
42110;SDS011;27766;52.174;5.456;2024-01-30T14:43:49;3.22;;;1.38;;
42110;SDS011;27766;52.174;5.456;2024-01-30T14:46:17;2.42;;;1.55;;